sensor_id;sensor_type;location;lat;lon;timestamp;temperature;humidity
36690;DHT22;22676;51.120;3.702;2023-05-14T00:01:45;24.90;49.70
36690;DHT22;22676;51.120;3.702;2023-05-14T00:04:11;25.00;49.50
36690;DHT22;22676;51.120;3.702;2023-05-14T00:06:37;25.00;49.50
36690;DHT22;22676;51.120;3.702;2023-05-14T00:09:02;25.00;49.70
36690;DHT22;22676;51.120;3.702;2023-05-14T00:11:28;25.00;49.60
36690;DHT22;22676;51.120;3.702;2023-05-14T00:13:54;25.00;49.50
36690;DHT22;22676;51.120;3.702;2023-05-14T00:16:19;25.00;49.50
36690;DHT22;22676;51.120;3.702;2023-05-14T00:18:45;25.10;49.50
36690;DHT22;22676;51.120;3.702;2023-05-14T00:21:10;25.00;49.40
36690;DHT22;22676;51.120;3.702;2023-05-14T00:23:37;24.90;48.80
36690;DHT22;22676;51.120;3.702;2023-05-14T00:26:02;24.70;48.90
36690;DHT22;22676;51.120;3.702;2023-05-14T00:28:28;24.60;49.60
36690;DHT22;22676;51.120;3.702;2023-05-14T00:30:53;24.60;49.80
36690;DHT22;22676;51.120;3.702;2023-05-14T00:33:20;24.70;49.80
36690;DHT22;22676;51.120;3.702;2023-05-14T00:35:45;24.70;49.90
36690;DHT22;22676;51.120;3.702;2023-05-14T00:38:11;24.70;49.90
36690;DHT22;22676;51.120;3.702;2023-05-14T00:40:41;24.70;49.80
36690;DHT22;22676;51.120;3.702;2023-05-14T00:43:10;24.70;49.90
36690;DHT22;22676;51.120;3.702;2023-05-14T00:45:35;24.70;49.90
36690;DHT22;22676;51.120;3.702;2023-05-14T00:48:01;24.80;49.90
36690;DHT22;22676;51.120;3.702;2023-05-14T00:50:26;24.70;49.90
36690;DHT22;22676;51.120;3.702;2023-05-14T00:52:52;24.80;49.80
36690;DHT22;22676;51.120;3.702;2023-05-14T00:55:17;24.80;49.80
36690;DHT22;22676;51.120;3.702;2023-05-14T00:57:43;24.80;49.80
36690;DHT22;22676;51.120;3.702;2023-05-14T01:00:09;24.80;49.90
36690;DHT22;22676;51.120;3.702;2023-05-14T01:02:35;24.80;49.90
36690;DHT22;22676;51.120;3.702;2023-05-14T01:05:00;24.70;49.80
36690;DHT22;22676;51.120;3.702;2023-05-14T01:07:29;24.70;49.80
36690;DHT22;22676;51.120;3.702;2023-05-14T01:14:54;24.80;49.60
36690;DHT22;22676;51.120;3.702;2023-05-14T01:17:21;24.80;49.60
36690;DHT22;22676;51.120;3.702;2023-05-14T01:19:48;24.80;50.20
36690;DHT22;22676;51.120;3.702;2023-05-14T01:22:15;24.70;49.00
36690;DHT22;22676;51.120;3.702;2023-05-14T01:24:41;24.60;49.00
36690;DHT22;22676;51.120;3.702;2023-05-14T01:27:13;24.40;49.20
36690;DHT22;22676;51.120;3.702;2023-05-14T01:29:42;24.40;49.80
36690;DHT22;22676;51.120;3.702;2023-05-14T01:32:09;24.50;49.90
36690;DHT22;22676;51.120;3.702;2023-05-14T01:34:35;24.50;49.90
36690;DHT22;22676;51.120;3.702;2023-05-14T01:37:01;24.50;49.90
36690;DHT22;22676;51.120;3.702;2023-05-14T01:39:28;24.50;49.90
36690;DHT22;22676;51.120;3.702;2023-05-14T01:41:56;24.60;49.90
36690;DHT22;22676;51.120;3.702;2023-05-14T01:44:21;24.60;49.80
36690;DHT22;22676;51.120;3.702;2023-05-14T01:46:47;24.60;49.90
36690;DHT22;22676;51.120;3.702;2023-05-14T01:49:13;24.60;49.90
36690;DHT22;22676;51.120;3.702;2023-05-14T01:51:40;24.50;49.90
36690;DHT22;22676;51.120;3.702;2023-05-14T01:54:05;24.60;49.90
36690;DHT22;22676;51.120;3.702;2023-05-14T01:56:31;24.50;49.90
36690;DHT22;22676;51.120;3.702;2023-05-14T01:58:56;24.50;50.00
36690;DHT22;22676;51.120;3.702;2023-05-14T02:01:22;24.50;49.90
36690;DHT22;22676;51.120;3.702;2023-05-14T02:03:47;24.60;49.90
36690;DHT22;22676;51.120;3.702;2023-05-14T02:06:13;24.70;49.70
36690;DHT22;22676;51.120;3.702;2023-05-14T02:08:39;24.60;49.70
36690;DHT22;22676;51.120;3.702;2023-05-14T02:11:04;24.60;49.70
36690;DHT22;22676;51.120;3.702;2023-05-14T02:13:30;24.50;49.80
36690;DHT22;22676;51.120;3.702;2023-05-14T02:15:55;24.40;50.00
36690;DHT22;22676;51.120;3.702;2023-05-14T02:18:21;24.50;50.00
36690;DHT22;22676;51.120;3.702;2023-05-14T02:20:46;24.50;49.80
36690;DHT22;22676;51.120;3.702;2023-05-14T02:23:12;24.40;49.30
36690;DHT22;22676;51.120;3.702;2023-05-14T02:25:37;24.20;49.20
36690;DHT22;22676;51.120;3.702;2023-05-14T02:28:03;24.00;49.70
36690;DHT22;22676;51.120;3.702;2023-05-14T02:30:29;24.00;50.40
36690;DHT22;22676;51.120;3.702;2023-05-14T02:32:55;24.00;50.50
36690;DHT22;22676;51.120;3.702;2023-05-14T02:35:21;24.00;50.40
36690;DHT22;22676;51.120;3.702;2023-05-14T02:37:47;24.00;50.50
36690;DHT22;22676;51.120;3.702;2023-05-14T02:40:12;24.10;50.50
36690;DHT22;22676;51.120;3.702;2023-05-14T02:42:38;24.00;50.50
36690;DHT22;22676;51.120;3.702;2023-05-14T02:45:04;24.10;50.60
36690;DHT22;22676;51.120;3.702;2023-05-14T02:47:29;24.00;50.30
36690;DHT22;22676;51.120;3.702;2023-05-14T02:49:55;24.10;50.30
36690;DHT22;22676;51.120;3.702;2023-05-14T02:52:20;24.00;50.50
36690;DHT22;22676;51.120;3.702;2023-05-14T02:54:46;24.10;50.50
36690;DHT22;22676;51.120;3.702;2023-05-14T02:57:11;24.10;50.30
36690;DHT22;22676;51.120;3.702;2023-05-14T02:59:37;24.10;50.40
36690;DHT22;22676;51.120;3.702;2023-05-14T03:02:03;24.00;50.50
36690;DHT22;22676;51.120;3.702;2023-05-14T03:04:28;24.00;50.40
36690;DHT22;22676;51.120;3.702;2023-05-14T03:06:54;24.00;50.50
36690;DHT22;22676;51.120;3.702;2023-05-14T03:09:19;23.90;50.60
36690;DHT22;22676;51.120;3.702;2023-05-14T03:11:45;23.90;50.40
36690;DHT22;22676;51.120;3.702;2023-05-14T03:14:11;24.00;50.50
36690;DHT22;22676;51.120;3.702;2023-05-14T03:16:36;23.70;50.90
36690;DHT22;22676;51.120;3.702;2023-05-14T03:19:02;23.60;51.30
36690;DHT22;22676;51.120;3.702;2023-05-14T03:21:28;23.70;50.80
36690;DHT22;22676;51.120;3.702;2023-05-14T03:23:53;23.80;50.10
36690;DHT22;22676;51.120;3.702;2023-05-14T03:26:19;23.90;50.00
36690;DHT22;22676;51.120;3.702;2023-05-14T03:28:45;23.70;50.70
36690;DHT22;22676;51.120;3.702;2023-05-14T03:31:11;23.70;50.70
36690;DHT22;22676;51.120;3.702;2023-05-14T03:33:36;23.70;50.90
36690;DHT22;22676;51.120;3.702;2023-05-14T03:36:02;23.90;50.60
36690;DHT22;22676;51.120;3.702;2023-05-14T03:38:27;23.90;50.50
36690;DHT22;22676;51.120;3.702;2023-05-14T03:40:53;24.00;50.20
36690;DHT22;22676;51.120;3.702;2023-05-14T03:43:18;24.00;50.30
36690;DHT22;22676;51.120;3.702;2023-05-14T03:45:44;24.10;50.40
36690;DHT22;22676;51.120;3.702;2023-05-14T03:48:10;24.00;50.40
36690;DHT22;22676;51.120;3.702;2023-05-14T03:50:35;24.00;50.40
36690;DHT22;22676;51.120;3.702;2023-05-14T03:53:01;24.20;50.10
36690;DHT22;22676;51.120;3.702;2023-05-14T03:55:26;24.30;49.80
36690;DHT22;22676;51.120;3.702;2023-05-14T03:57:52;24.30;49.90
36690;DHT22;22676;51.120;3.702;2023-05-14T04:00:17;24.40;49.60
36690;DHT22;22676;51.120;3.702;2023-05-14T04:02:43;24.50;49.40
36690;DHT22;22676;51.120;3.702;2023-05-14T04:05:08;24.50;49.40
36690;DHT22;22676;51.120;3.702;2023-05-14T04:07:34;24.60;49.20
36690;DHT22;22676;51.120;3.702;2023-05-14T04:10:00;24.50;49.30
36690;DHT22;22676;51.120;3.702;2023-05-14T04:12:26;24.60;49.40
36690;DHT22;22676;51.120;3.702;2023-05-14T04:14:51;24.70;49.40
36690;DHT22;22676;51.120;3.702;2023-05-14T04:17:17;24.70;49.30
36690;DHT22;22676;51.120;3.702;2023-05-14T04:19:42;24.70;49.20
36690;DHT22;22676;51.120;3.702;2023-05-14T04:22:08;24.80;48.20
36690;DHT22;22676;51.120;3.702;2023-05-14T04:24:34;24.80;47.90
36690;DHT22;22676;51.120;3.702;2023-05-14T04:26:59;24.80;48.10
36690;DHT22;22676;51.120;3.702;2023-05-14T04:29:24;24.60;49.10
36690;DHT22;22676;51.120;3.702;2023-05-14T04:31:50;24.70;49.20
36690;DHT22;22676;51.120;3.702;2023-05-14T04:34:16;24.60;49.20
36690;DHT22;22676;51.120;3.702;2023-05-14T04:36:41;24.70;49.20
36690;DHT22;22676;51.120;3.702;2023-05-14T04:39:07;24.60;49.40
36690;DHT22;22676;51.120;3.702;2023-05-14T04:41:34;24.60;49.30
36690;DHT22;22676;51.120;3.702;2023-05-14T04:43:59;24.50;49.40
36690;DHT22;22676;51.120;3.702;2023-05-14T04:46:28;24.40;49.50
36690;DHT22;22676;51.120;3.702;2023-05-14T04:48:53;24.50;49.50
36690;DHT22;22676;51.120;3.702;2023-05-14T04:51:19;24.40;49.60
36690;DHT22;22676;51.120;3.702;2023-05-14T04:53:44;24.30;49.90
36690;DHT22;22676;51.120;3.702;2023-05-14T04:56:10;24.20;50.00
36690;DHT22;22676;51.120;3.702;2023-05-14T04:58:35;24.20;50.00
36690;DHT22;22676;51.120;3.702;2023-05-14T05:01:02;24.20;50.00
36690;DHT22;22676;51.120;3.702;2023-05-14T05:03:29;24.20;50.00
36690;DHT22;22676;51.120;3.702;2023-05-14T05:05:55;24.20;50.60
36690;DHT22;22676;51.120;3.702;2023-05-14T05:08:20;24.20;50.20
36690;DHT22;22676;51.120;3.702;2023-05-14T05:10:46;24.20;50.00
36690;DHT22;22676;51.120;3.702;2023-05-14T05:13:12;24.20;50.20
36690;DHT22;22676;51.120;3.702;2023-05-14T05:15:37;24.10;50.20
36690;DHT22;22676;51.120;3.702;2023-05-14T05:18:03;24.10;50.30
36690;DHT22;22676;51.120;3.702;2023-05-14T05:20:28;24.10;50.30
36690;DHT22;22676;51.120;3.702;2023-05-14T05:22:54;24.20;49.60
36690;DHT22;22676;51.120;3.702;2023-05-14T05:25:19;24.10;49.40
36690;DHT22;22676;51.120;3.702;2023-05-14T05:27:45;24.10;50.50
36690;DHT22;22676;51.120;3.702;2023-05-14T05:30:11;23.90;50.50
36690;DHT22;22676;51.120;3.702;2023-05-14T05:32:36;24.00;50.40
36690;DHT22;22676;51.120;3.702;2023-05-14T05:35:02;24.00;50.30
36690;DHT22;22676;51.120;3.702;2023-05-14T05:37:28;24.10;50.20
36690;DHT22;22676;51.120;3.702;2023-05-14T05:39:54;24.10;50.10
36690;DHT22;22676;51.120;3.702;2023-05-14T05:42:20;24.00;50.00
36690;DHT22;22676;51.120;3.702;2023-05-14T05:44:46;24.00;50.00
36690;DHT22;22676;51.120;3.702;2023-05-14T05:47:12;24.00;50.10
36690;DHT22;22676;51.120;3.702;2023-05-14T05:49:37;24.00;50.20
36690;DHT22;22676;51.120;3.702;2023-05-14T05:52:03;24.00;50.40
36690;DHT22;22676;51.120;3.702;2023-05-14T05:54:29;24.00;50.20
36690;DHT22;22676;51.120;3.702;2023-05-14T05:56:56;24.00;50.20
36690;DHT22;22676;51.120;3.702;2023-05-14T05:59:22;24.00;50.20
36690;DHT22;22676;51.120;3.702;2023-05-14T06:01:48;24.00;50.30
36690;DHT22;22676;51.120;3.702;2023-05-14T06:04:14;23.90;50.30
36690;DHT22;22676;51.120;3.702;2023-05-14T06:06:40;23.90;50.20
36690;DHT22;22676;51.120;3.702;2023-05-14T06:09:05;23.90;50.30
36690;DHT22;22676;51.120;3.702;2023-05-14T06:11:31;23.90;50.20
36690;DHT22;22676;51.120;3.702;2023-05-14T06:13:56;23.90;50.00
36690;DHT22;22676;51.120;3.702;2023-05-14T06:16:22;24.00;50.00
36690;DHT22;22676;51.120;3.702;2023-05-14T06:18:48;23.90;50.10
36690;DHT22;22676;51.120;3.702;2023-05-14T06:21:13;23.90;50.10
36690;DHT22;22676;51.120;3.702;2023-05-14T06:23:39;23.80;49.50
36690;DHT22;22676;51.120;3.702;2023-05-14T06:26:05;23.80;49.70
36690;DHT22;22676;51.120;3.702;2023-05-14T06:28:31;23.70;50.20
36690;DHT22;22676;51.120;3.702;2023-05-14T06:30:56;23.50;50.50
36690;DHT22;22676;51.120;3.702;2023-05-14T06:33:22;23.60;50.50
36690;DHT22;22676;51.120;3.702;2023-05-14T06:35:55;23.70;50.30
36690;DHT22;22676;51.120;3.702;2023-05-14T06:38:20;23.60;50.50
36690;DHT22;22676;51.120;3.702;2023-05-14T06:40:46;23.60;50.60
36690;DHT22;22676;51.120;3.702;2023-05-14T06:43:11;23.70;50.50
36690;DHT22;22676;51.120;3.702;2023-05-14T06:45:37;23.60;50.70
36690;DHT22;22676;51.120;3.702;2023-05-14T06:48:03;23.70;50.80
36690;DHT22;22676;51.120;3.702;2023-05-14T06:50:28;23.70;50.60
36690;DHT22;22676;51.120;3.702;2023-05-14T06:52:54;23.70;50.50
36690;DHT22;22676;51.120;3.702;2023-05-14T06:55:19;23.70;50.80
36690;DHT22;22676;51.120;3.702;2023-05-14T06:57:45;23.60;50.60
36690;DHT22;22676;51.120;3.702;2023-05-14T07:00:11;23.50;50.90
36690;DHT22;22676;51.120;3.702;2023-05-14T07:02:36;23.30;51.40
36690;DHT22;22676;51.120;3.702;2023-05-14T07:05:02;23.40;51.40
36690;DHT22;22676;51.120;3.702;2023-05-14T07:07:27;23.30;51.70
36690;DHT22;22676;51.120;3.702;2023-05-14T07:09:53;23.20;51.90
36690;DHT22;22676;51.120;3.702;2023-05-14T07:12:18;23.20;52.30
36690;DHT22;22676;51.120;3.702;2023-05-14T07:14:44;23.10;52.50
36690;DHT22;22676;51.120;3.702;2023-05-14T07:17:10;23.00;52.50
36690;DHT22;22676;51.120;3.702;2023-05-14T07:19:36;23.10;52.70
36690;DHT22;22676;51.120;3.702;2023-05-14T07:22:01;23.10;52.70
36690;DHT22;22676;51.120;3.702;2023-05-14T07:24:27;23.20;52.30
36690;DHT22;22676;51.120;3.702;2023-05-14T07:26:52;23.40;52.10
36690;DHT22;22676;51.120;3.702;2023-05-14T07:29:19;23.20;52.10
36690;DHT22;22676;51.120;3.702;2023-05-14T07:31:45;23.20;52.60
36690;DHT22;22676;51.120;3.702;2023-05-14T07:34:10;23.20;52.80
36690;DHT22;22676;51.120;3.702;2023-05-14T07:36:36;23.40;52.80
36690;DHT22;22676;51.120;3.702;2023-05-14T07:39:02;23.40;52.60
36690;DHT22;22676;51.120;3.702;2023-05-14T07:41:28;23.40;52.60
36690;DHT22;22676;51.120;3.702;2023-05-14T07:43:53;23.30;52.60
36690;DHT22;22676;51.120;3.702;2023-05-14T07:46:19;23.20;52.70
36690;DHT22;22676;51.120;3.702;2023-05-14T07:48:44;23.20;53.30
36690;DHT22;22676;51.120;3.702;2023-05-14T07:51:10;23.10;53.50
36690;DHT22;22676;51.120;3.702;2023-05-14T07:53:36;23.10;53.90
36690;DHT22;22676;51.120;3.702;2023-05-14T07:56:01;23.20;54.20
36690;DHT22;22676;51.120;3.702;2023-05-14T07:58:27;23.20;55.10
36690;DHT22;22676;51.120;3.702;2023-05-14T08:00:53;23.30;54.40
36690;DHT22;22676;51.120;3.702;2023-05-14T08:03:18;23.20;54.40
36690;DHT22;22676;51.120;3.702;2023-05-14T08:05:44;23.20;54.60
36690;DHT22;22676;51.120;3.702;2023-05-14T08:08:10;23.10;54.80
36690;DHT22;22676;51.120;3.702;2023-05-14T08:10:36;23.20;54.80
36690;DHT22;22676;51.120;3.702;2023-05-14T08:13:02;23.20;54.80
36690;DHT22;22676;51.120;3.702;2023-05-14T08:15:28;23.30;54.80
36690;DHT22;22676;51.120;3.702;2023-05-14T08:17:53;23.20;55.00
36690;DHT22;22676;51.120;3.702;2023-05-14T08:20:19;23.20;55.10
36690;DHT22;22676;51.120;3.702;2023-05-14T08:22:44;23.50;54.30
36690;DHT22;22676;51.120;3.702;2023-05-14T08:25:10;23.70;53.60
36690;DHT22;22676;51.120;3.702;2023-05-14T08:27:35;23.70;53.10
36690;DHT22;22676;51.120;3.702;2023-05-14T08:30:01;23.60;53.80
36690;DHT22;22676;51.120;3.702;2023-05-14T08:32:26;23.50;54.10
36690;DHT22;22676;51.120;3.702;2023-05-14T08:34:52;23.50;54.30
36690;DHT22;22676;51.120;3.702;2023-05-14T08:37:17;23.40;54.50
36690;DHT22;22676;51.120;3.702;2023-05-14T08:39:43;23.30;54.70
36690;DHT22;22676;51.120;3.702;2023-05-14T08:42:09;23.30;54.70
36690;DHT22;22676;51.120;3.702;2023-05-14T08:47:11;23.40;55.10
36690;DHT22;22676;51.120;3.702;2023-05-14T08:49:40;23.40;55.00
36690;DHT22;22676;51.120;3.702;2023-05-14T08:52:10;23.50;54.80
36690;DHT22;22676;51.120;3.702;2023-05-14T08:54:36;23.40;54.70
36690;DHT22;22676;51.120;3.702;2023-05-14T08:57:02;23.30;55.10
36690;DHT22;22676;51.120;3.702;2023-05-14T08:59:27;23.20;54.90
36690;DHT22;22676;51.120;3.702;2023-05-14T09:01:53;23.20;55.10
36690;DHT22;22676;51.120;3.702;2023-05-14T09:04:20;23.20;55.10
36690;DHT22;22676;51.120;3.702;2023-05-14T09:06:51;23.30;55.40
36690;DHT22;22676;51.120;3.702;2023-05-14T09:09:17;23.30;55.00
36690;DHT22;22676;51.120;3.702;2023-05-14T09:11:47;23.20;55.10
36690;DHT22;22676;51.120;3.702;2023-05-14T09:14:13;23.30;55.40
36690;DHT22;22676;51.120;3.702;2023-05-14T09:16:39;23.40;55.40
36690;DHT22;22676;51.120;3.702;2023-05-14T09:19:06;23.60;54.70
36690;DHT22;22676;51.120;3.702;2023-05-14T09:21:32;23.50;54.50
36690;DHT22;22676;51.120;3.702;2023-05-14T09:23:58;23.60;54.50
36690;DHT22;22676;51.120;3.702;2023-05-14T09:26:24;23.70;53.80
36690;DHT22;22676;51.120;3.702;2023-05-14T09:28:54;23.60;53.80
36690;DHT22;22676;51.120;3.702;2023-05-14T09:31:26;23.50;54.10
36690;DHT22;22676;51.120;3.702;2023-05-14T09:33:51;23.60;54.30
36690;DHT22;22676;51.120;3.702;2023-05-14T09:36:17;23.60;53.60
36690;DHT22;22676;51.120;3.702;2023-05-14T09:38:43;23.50;53.80
36690;DHT22;22676;51.120;3.702;2023-05-14T09:41:09;23.50;54.00
36690;DHT22;22676;51.120;3.702;2023-05-14T09:43:34;23.50;54.20
36690;DHT22;22676;51.120;3.702;2023-05-14T09:46:00;23.40;54.40
36690;DHT22;22676;51.120;3.702;2023-05-14T09:48:25;23.50;54.60
36690;DHT22;22676;51.120;3.702;2023-05-14T09:50:51;23.50;54.70
36690;DHT22;22676;51.120;3.702;2023-05-14T09:53:17;23.50;54.30
36690;DHT22;22676;51.120;3.702;2023-05-14T09:55:43;23.50;54.40
36690;DHT22;22676;51.120;3.702;2023-05-14T09:58:08;23.50;54.30
36690;DHT22;22676;51.120;3.702;2023-05-14T10:00:34;23.50;54.50
36690;DHT22;22676;51.120;3.702;2023-05-14T10:03:06;23.50;54.30
36690;DHT22;22676;51.120;3.702;2023-05-14T10:05:35;23.50;55.00
36690;DHT22;22676;51.120;3.702;2023-05-14T10:08:06;23.40;54.50
36690;DHT22;22676;51.120;3.702;2023-05-14T10:10:33;23.40;54.50
36690;DHT22;22676;51.120;3.702;2023-05-14T10:13:01;23.40;54.50
36690;DHT22;22676;51.120;3.702;2023-05-14T10:15:38;23.40;54.40
36690;DHT22;22676;51.120;3.702;2023-05-14T10:18:08;23.40;54.40
36690;DHT22;22676;51.120;3.702;2023-05-14T10:20:34;23.50;54.40
36690;DHT22;22676;51.120;3.702;2023-05-14T10:23:00;23.60;53.90
36690;DHT22;22676;51.120;3.702;2023-05-14T10:25:26;23.60;53.70
36690;DHT22;22676;51.120;3.702;2023-05-14T10:27:52;23.50;53.60
36690;DHT22;22676;51.120;3.702;2023-05-14T10:30:19;23.50;54.50
36690;DHT22;22676;51.120;3.702;2023-05-14T10:32:45;23.60;54.10
36690;DHT22;22676;51.120;3.702;2023-05-14T10:35:15;23.70;54.10
36690;DHT22;22676;51.120;3.702;2023-05-14T10:37:41;23.70;54.30
36690;DHT22;22676;51.120;3.702;2023-05-14T10:40:08;23.80;54.30
36690;DHT22;22676;51.120;3.702;2023-05-14T10:42:35;23.90;54.40
36690;DHT22;22676;51.120;3.702;2023-05-14T10:45:05;23.90;54.40
36690;DHT22;22676;51.120;3.702;2023-05-14T10:47:32;23.80;54.50
36690;DHT22;22676;51.120;3.702;2023-05-14T10:50:00;23.70;54.70
36690;DHT22;22676;51.120;3.702;2023-05-14T10:52:26;23.80;54.70
36690;DHT22;22676;51.120;3.702;2023-05-14T10:57:17;23.60;55.00
36690;DHT22;22676;51.120;3.702;2023-05-14T10:59:43;23.50;55.20
36690;DHT22;22676;51.120;3.702;2023-05-14T11:02:22;23.50;55.20
36690;DHT22;22676;51.120;3.702;2023-05-14T11:05:07;23.60;55.20
36690;DHT22;22676;51.120;3.702;2023-05-14T11:07:34;23.60;55.20
36690;DHT22;22676;51.120;3.702;2023-05-14T11:10:04;23.70;55.00
36690;DHT22;22676;51.120;3.702;2023-05-14T11:12:30;23.60;55.00
36690;DHT22;22676;51.120;3.702;2023-05-14T11:14:56;23.60;54.80
36690;DHT22;22676;51.120;3.702;2023-05-14T11:17:23;23.60;55.30
36690;DHT22;22676;51.120;3.702;2023-05-14T11:19:48;23.60;55.00
36690;DHT22;22676;51.120;3.702;2023-05-14T11:22:14;23.60;54.90
36690;DHT22;22676;51.120;3.702;2023-05-14T11:24:40;23.60;54.80
36690;DHT22;22676;51.120;3.702;2023-05-14T11:27:09;23.70;54.40
36690;DHT22;22676;51.120;3.702;2023-05-14T11:29:38;23.70;54.50
36690;DHT22;22676;51.120;3.702;2023-05-14T11:32:07;23.70;54.40
36690;DHT22;22676;51.120;3.702;2023-05-14T11:34:32;23.80;54.40
36690;DHT22;22676;51.120;3.702;2023-05-14T11:37:02;23.90;54.40
36690;DHT22;22676;51.120;3.702;2023-05-14T11:39:28;23.90;54.60
36690;DHT22;22676;51.120;3.702;2023-05-14T11:41:56;24.10;53.80
36690;DHT22;22676;51.120;3.702;2023-05-14T11:44:22;24.00;54.00
36690;DHT22;22676;51.120;3.702;2023-05-14T11:46:57;24.20;53.90
36690;DHT22;22676;51.120;3.702;2023-05-14T11:49:23;24.40;53.80
36690;DHT22;22676;51.120;3.702;2023-05-14T11:51:59;24.50;53.40
36690;DHT22;22676;51.120;3.702;2023-05-14T11:54:25;24.50;53.30
36690;DHT22;22676;51.120;3.702;2023-05-14T11:56:51;24.50;53.00
36690;DHT22;22676;51.120;3.702;2023-05-14T11:59:17;24.60;52.90
36690;DHT22;22676;51.120;3.702;2023-05-14T12:01:45;24.70;52.50
36690;DHT22;22676;51.120;3.702;2023-05-14T12:04:11;24.60;52.80
36690;DHT22;22676;51.120;3.702;2023-05-14T12:06:37;24.50;53.00
36690;DHT22;22676;51.120;3.702;2023-05-14T12:09:03;24.60;52.60
36690;DHT22;22676;51.120;3.702;2023-05-14T12:11:29;24.70;52.60
36690;DHT22;22676;51.120;3.702;2023-05-14T12:13:55;24.60;52.70
36690;DHT22;22676;51.120;3.702;2023-05-14T12:16:20;24.60;52.90
36690;DHT22;22676;51.120;3.702;2023-05-14T12:18:46;24.50;52.90
36690;DHT22;22676;51.120;3.702;2023-05-14T12:21:12;24.60;52.80
36690;DHT22;22676;51.120;3.702;2023-05-14T12:23:37;24.50;52.70
36690;DHT22;22676;51.120;3.702;2023-05-14T12:26:04;24.40;52.30
36690;DHT22;22676;51.120;3.702;2023-05-14T12:28:30;24.50;52.30
36690;DHT22;22676;51.120;3.702;2023-05-14T12:30:56;24.50;52.80
36690;DHT22;22676;51.120;3.702;2023-05-14T12:33:22;24.60;52.80
36690;DHT22;22676;51.120;3.702;2023-05-14T12:35:48;24.60;52.80
36690;DHT22;22676;51.120;3.702;2023-05-14T12:38:14;24.60;53.20
36690;DHT22;22676;51.120;3.702;2023-05-14T12:40:39;24.60;52.00
36690;DHT22;22676;51.120;3.702;2023-05-14T12:43:05;24.50;51.10
36690;DHT22;22676;51.120;3.702;2023-05-14T12:45:30;24.40;51.20
36690;DHT22;22676;51.120;3.702;2023-05-14T12:47:56;24.30;51.40
36690;DHT22;22676;51.120;3.702;2023-05-14T12:50:21;24.30;50.90
36690;DHT22;22676;51.120;3.702;2023-05-14T12:52:47;24.20;51.00
36690;DHT22;22676;51.120;3.702;2023-05-14T12:55:12;24.30;51.00
36690;DHT22;22676;51.120;3.702;2023-05-14T12:57:38;24.30;51.10
36690;DHT22;22676;51.120;3.702;2023-05-14T13:00:04;24.30;50.80
36690;DHT22;22676;51.120;3.702;2023-05-14T13:02:34;24.20;50.80
36690;DHT22;22676;51.120;3.702;2023-05-14T13:05:00;24.30;50.80
36690;DHT22;22676;51.120;3.702;2023-05-14T13:07:29;24.30;50.80
36690;DHT22;22676;51.120;3.702;2023-05-14T13:09:55;24.20;50.90
36690;DHT22;22676;51.120;3.702;2023-05-14T13:12:21;24.20;50.80
36690;DHT22;22676;51.120;3.702;2023-05-14T13:14:47;24.20;50.80
36690;DHT22;22676;51.120;3.702;2023-05-14T13:17:12;24.20;51.00
36690;DHT22;22676;51.120;3.702;2023-05-14T13:19:38;24.20;50.60
36690;DHT22;22676;51.120;3.702;2023-05-14T13:22:03;24.20;50.20
36690;DHT22;22676;51.120;3.702;2023-05-14T13:24:29;24.10;49.80
36690;DHT22;22676;51.120;3.702;2023-05-14T13:26:55;24.20;50.30
36690;DHT22;22676;51.120;3.702;2023-05-14T13:29:23;24.20;50.10
36690;DHT22;22676;51.120;3.702;2023-05-14T13:31:48;24.10;49.80
36690;DHT22;22676;51.120;3.702;2023-05-14T13:34:14;24.10;49.70
36690;DHT22;22676;51.120;3.702;2023-05-14T13:36:40;24.10;50.10
36690;DHT22;22676;51.120;3.702;2023-05-14T13:39:08;24.10;50.30
36690;DHT22;22676;51.120;3.702;2023-05-14T13:41:35;24.10;49.60
36690;DHT22;22676;51.120;3.702;2023-05-14T13:44:02;24.10;49.70
36690;DHT22;22676;51.120;3.702;2023-05-14T13:46:28;24.00;50.10
36690;DHT22;22676;51.120;3.702;2023-05-14T13:48:53;24.00;50.00
36690;DHT22;22676;51.120;3.702;2023-05-14T13:51:19;23.90;50.10
36690;DHT22;22676;51.120;3.702;2023-05-14T13:53:44;23.90;50.00
36690;DHT22;22676;51.120;3.702;2023-05-14T13:56:10;23.80;49.80
36690;DHT22;22676;51.120;3.702;2023-05-14T13:58:36;23.70;50.40
36690;DHT22;22676;51.120;3.702;2023-05-14T14:01:01;23.70;50.80
36690;DHT22;22676;51.120;3.702;2023-05-14T14:03:27;23.70;51.20
36690;DHT22;22676;51.120;3.702;2023-05-14T14:05:53;23.70;51.20
36690;DHT22;22676;51.120;3.702;2023-05-14T14:08:18;23.70;51.10
36690;DHT22;22676;51.120;3.702;2023-05-14T14:10:44;23.90;51.20
36690;DHT22;22676;51.120;3.702;2023-05-14T14:13:09;23.90;51.20
36690;DHT22;22676;51.120;3.702;2023-05-14T14:15:35;24.00;51.00
36690;DHT22;22676;51.120;3.702;2023-05-14T14:18:01;24.00;51.00
36690;DHT22;22676;51.120;3.702;2023-05-14T14:20:29;24.10;50.90
36690;DHT22;22676;51.120;3.702;2023-05-14T14:22:55;24.20;50.60
36690;DHT22;22676;51.120;3.702;2023-05-14T14:25:21;24.20;50.20
36690;DHT22;22676;51.120;3.702;2023-05-14T14:27:46;24.20;50.00
36690;DHT22;22676;51.120;3.702;2023-05-14T14:30:12;24.20;50.20
36690;DHT22;22676;51.120;3.702;2023-05-14T14:32:44;24.30;50.40
36690;DHT22;22676;51.120;3.702;2023-05-14T14:35:10;24.40;50.40
36690;DHT22;22676;51.120;3.702;2023-05-14T14:37:36;24.30;50.50
36690;DHT22;22676;51.120;3.702;2023-05-14T14:40:02;24.40;50.40
36690;DHT22;22676;51.120;3.702;2023-05-14T14:42:28;24.40;50.10
36690;DHT22;22676;51.120;3.702;2023-05-14T14:44:53;24.40;50.10
36690;DHT22;22676;51.120;3.702;2023-05-14T14:47:19;24.50;49.80
36690;DHT22;22676;51.120;3.702;2023-05-14T14:49:44;24.30;50.00
36690;DHT22;22676;51.120;3.702;2023-05-14T14:52:10;24.10;50.40
36690;DHT22;22676;51.120;3.702;2023-05-14T14:54:35;24.10;50.60
36690;DHT22;22676;51.120;3.702;2023-05-14T14:57:01;24.10;50.70
36690;DHT22;22676;51.120;3.702;2023-05-14T14:59:27;24.10;50.90
36690;DHT22;22676;51.120;3.702;2023-05-14T15:01:56;24.10;50.80
36690;DHT22;22676;51.120;3.702;2023-05-14T15:04:22;24.00;51.50
36690;DHT22;22676;51.120;3.702;2023-05-14T15:06:47;23.90;51.30
36690;DHT22;22676;51.120;3.702;2023-05-14T15:09:13;24.00;51.30
36690;DHT22;22676;51.120;3.702;2023-05-14T15:11:39;23.90;51.50
36690;DHT22;22676;51.120;3.702;2023-05-14T15:14:04;23.90;51.70
36690;DHT22;22676;51.120;3.702;2023-05-14T15:16:30;23.80;51.80
36690;DHT22;22676;51.120;3.702;2023-05-14T15:18:56;23.80;52.00
36690;DHT22;22676;51.120;3.702;2023-05-14T15:21:22;23.80;52.20
36690;DHT22;22676;51.120;3.702;2023-05-14T15:23:50;23.80;51.70
36690;DHT22;22676;51.120;3.702;2023-05-14T15:26:16;23.90;51.80
36690;DHT22;22676;51.120;3.702;2023-05-14T15:28:42;23.80;52.30
36690;DHT22;22676;51.120;3.702;2023-05-14T15:31:08;23.80;52.20
36690;DHT22;22676;51.120;3.702;2023-05-14T15:33:34;23.80;52.20